Time;durP1;ratioP1;P1;durP2;ratioP2;P2;SDS_P1;SDS_P2;PMS_P1;PMS_P2;Temp;Humidity;BMP_temperature;BMP_pressure;BME280_temperature;BME280_humidity;BME280_pressure;Samples;Min_cycle;Max_cycle;Signal;HPM_P1;HPM_P2
2023/07/31 00:01:49;;;;;;;5.35;2.10;;;16.50;99.90;;;;;;4994099;28;20033;-77
2023/07/31 00:04:14;;;;;;;7.47;2.58;;;16.50;99.90;;;;;;4990511;28;20034;-77
2023/07/31 00:06:40;;;;;;;4.78;1.63;;;16.60;99.90;;;;;;4991583;28;20030;-77
2023/07/31 00:09:05;;;;;;;6.50;2.42;;;16.50;99.90;;;;;;4991701;28;20037;-77
2023/07/31 00:11:31;;;;;;;9.95;2.42;;;16.60;99.90;;;;;;4975921;28;20117;-77
2023/07/31 00:13:56;;;;;;;3.03;2.08;;;16.60;99.90;;;;;;5023312;28;20038;-76
2023/07/31 00:16:22;;;;;;;9.40;3.28;;;16.50;99.90;;;;;;4972859;28;20034;-77
2023/07/31 00:18:48;;;;;;;7.32;1.77;;;16.50;99.90;;;;;;4977952;28;20036;-76
2023/07/31 00:21:13;;;;;;;6.68;2.65;;;16.50;99.90;;;;;;5003672;28;20040;-77
2023/07/31 00:23:39;;;;;;;5.07;3.10;;;16.50;99.90;;;;;;4977326;28;20049;-77
2023/07/31 00:26:04;;;;;;;1.77;1.38;;;16.40;99.90;;;;;;4994325;28;20125;-77
2023/07/31 00:28:30;;;;;;;5.13;2.28;;;16.50;99.90;;;;;;4978566;28;20477;-77
2023/07/31 00:30:55;;;;;;;4.50;1.77;;;16.40;99.90;;;;;;4990227;28;20025;-77
2023/07/31 00:33:21;;;;;;;11.57;3.30;;;16.50;99.90;;;;;;5005963;28;20493;-77
2023/07/31 00:35:47;;;;;;;7.13;2.78;;;16.40;99.90;;;;;;4991109;28;20063;-77
2023/07/31 00:38:12;;;;;;;4.57;2.30;;;16.50;99.90;;;;;;5006269;28;20723;-77
2023/07/31 00:40:38;;;;;;;6.75;2.25;;;16.50;99.90;;;;;;4993917;28;20056;-77
2023/07/31 00:43:03;;;;;;;6.78;2.28;;;16.50;99.90;;;;;;4992416;28;20029;-77
2023/07/31 00:45:29;;;;;;;5.50;2.80;;;16.50;99.90;;;;;;4991101;28;20029;-77
2023/07/31 00:47:55;;;;;;;9.00;3.25;;;16.40;99.90;;;;;;5004794;28;20084;-77
2023/07/31 00:50:24;;;;;;;5.18;1.88;;;16.40;99.90;;;;;;4978440;28;20030;-78
2023/07/31 00:52:49;;;;;;;8.13;2.58;;;16.40;99.90;;;;;;5004099;28;20041;-77
2023/07/31 00:55:15;;;;;;;8.15;1.60;;;16.40;99.90;;;;;;5004516;28;20039;-77
2023/07/31 00:57:41;;;;;;;8.55;3.17;;;16.40;99.90;;;;;;4990029;28;20025;-78
2023/07/31 01:00:07;;;;;;;7.05;2.92;;;16.40;99.90;;;;;;4972192;28;20439;-77
2023/07/31 01:02:33;;;;;;;8.55;3.28;;;16.50;99.90;;;;;;4980624;28;20120;-77
2023/07/31 01:04:59;;;;;;;8.77;3.45;;;16.50;99.90;;;;;;4991775;28;20132;-78
2023/07/31 01:07:35;;;;;;;5.30;2.08;;;16.40;99.90;;;;;;4991262;28;20030;-78
2023/07/31 01:10:06;;;;;;;9.48;2.50;;;16.50;99.90;;;;;;4976128;28;20125;-77
2023/07/31 01:12:32;;;;;;;5.95;3.25;;;16.40;99.90;;;;;;5000235;28;20045;-78
2023/07/31 01:15:04;;;;;;;7.57;2.70;;;16.40;99.90;;;;;;4985180;28;20505;-78
2023/07/31 01:17:30;;;;;;;6.57;1.98;;;16.40;99.90;;;;;;5020384;28;20253;-79
2023/07/31 01:20:01;;;;;;;6.90;2.83;;;16.40;99.90;;;;;;4992296;28;20037;-77
2023/07/31 01:22:54;;;;;;;7.20;3.47;;;16.50;99.90;;;;;;4991474;28;20056;-78
2023/07/31 01:25:40;;;;;;;7.28;2.55;;;16.50;99.90;;;;;;5021184;28;20537;-78
2023/07/31 01:28:13;;;;;;;9.18;2.75;;;16.50;99.90;;;;;;5023237;28;20484;-78
2023/07/31 01:30:42;;;;;;;6.78;2.30;;;16.40;99.90;;;;;;4991393;28;20025;-78
2023/07/31 01:33:09;;;;;;;9.25;2.38;;;16.60;99.90;;;;;;5004497;28;20708;-79
2023/07/31 01:35:35;;;;;;;5.25;3.05;;;16.50;99.90;;;;;;4972416;28;20037;-78
2023/07/31 01:38:00;;;;;;;5.45;1.85;;;16.40;99.90;;;;;;4987307;28;20089;-78
2023/07/31 01:40:26;;;;;;;8.85;3.70;;;16.40;99.90;;;;;;4991161;28;20581;-79
2023/07/31 01:42:51;;;;;;;9.93;3.10;;;16.40;99.90;;;;;;4980496;28;20874;-78
2023/07/31 01:45:17;;;;;;;6.35;2.72;;;16.40;99.90;;;;;;4985509;28;20429;-78
2023/07/31 01:47:43;;;;;;;14.68;3.30;;;16.50;99.90;;;;;;4982849;28;20380;-78
2023/07/31 01:50:11;;;;;;;5.40;2.50;;;16.40;99.90;;;;;;4977371;28;20492;-78
2023/07/31 01:52:37;;;;;;;5.93;2.05;;;16.40;99.90;;;;;;4999906;28;20520;-78
2023/07/31 01:55:02;;;;;;;8.10;3.40;;;16.50;99.90;;;;;;4989002;28;20026;-78
2023/07/31 01:57:28;;;;;;;6.35;1.73;;;16.40;99.90;;;;;;4999676;28;20036;-78
2023/07/31 01:59:53;;;;;;;4.88;2.58;;;16.50;99.90;;;;;;4984694;28;20121;-77
2023/07/31 02:02:19;;;;;;;5.07;1.83;;;16.50;99.90;;;;;;5006581;28;20396;-79
2023/07/31 02:04:45;;;;;;;4.82;1.70;;;16.40;99.90;;;;;;4985544;28;20508;-78
2023/07/31 02:07:11;;;;;;;9.20;3.40;;;16.40;99.90;;;;;;4979096;28;20044;-78
2023/07/31 02:09:36;;;;;;;14.93;4.05;;;16.50;99.90;;;;;;4974962;28;20044;-78
2023/07/31 02:12:02;;;;;;;9.20;4.28;;;16.50;99.90;;;;;;4981455;28;20037;-78
2023/07/31 02:14:27;;;;;;;11.13;3.17;;;16.50;99.90;;;;;;5007219;28;20075;-79
2023/07/31 02:16:53;;;;;;;13.57;2.72;;;16.40;99.90;;;;;;4987192;28;20033;-78
2023/07/31 02:19:18;;;;;;;7.88;2.78;;;16.50;99.90;;;;;;4998184;28;20477;-77
2023/07/31 02:21:44;;;;;;;6.28;2.35;;;16.40;99.90;;;;;;4980041;28;20034;-78
2023/07/31 02:24:10;;;;;;;7.40;3.58;;;16.40;99.90;;;;;;4990277;28;23134;-77
2023/07/31 02:26:35;;;;;;;7.60;3.08;;;16.40;99.90;;;;;;4995625;28;20060;-77
2023/07/31 02:29:01;;;;;;;8.40;2.25;;;16.40;99.90;;;;;;4983059;28;20397;-77
2023/07/31 02:31:26;;;;;;;4.30;2.03;;;16.40;99.90;;;;;;4975642;28;20496;-78
2023/07/31 02:33:52;;;;;;;8.68;2.45;;;16.40;99.90;;;;;;4975438;28;20066;-79
2023/07/31 02:36:18;;;;;;;5.78;2.28;;;16.40;99.90;;;;;;5009482;28;20099;-77
2023/07/31 02:38:43;;;;;;;13.43;4.00;;;16.40;99.90;;;;;;5005464;28;20037;-78
2023/07/31 02:41:09;;;;;;;11.43;3.50;;;16.40;99.90;;;;;;4985667;28;20029;-78
2023/07/31 02:43:34;;;;;;;15.20;4.97;;;16.30;99.90;;;;;;4988468;28;20045;-78
2023/07/31 02:46:00;;;;;;;10.73;3.95;;;16.30;99.90;;;;;;4993904;28;20240;-77
2023/07/31 02:48:25;;;;;;;5.80;2.47;;;16.40;99.90;;;;;;4993935;28;20067;-78
2023/07/31 02:50:51;;;;;;;8.68;2.95;;;16.30;99.90;;;;;;4979089;28;20401;-77
2023/07/31 02:53:17;;;;;;;11.70;3.85;;;16.40;99.90;;;;;;4978813;28;20026;-78
2023/07/31 02:55:42;;;;;;;10.40;3.03;;;16.50;99.90;;;;;;5007381;28;20505;-79
2023/07/31 02:58:08;;;;;;;7.85;2.42;;;16.20;99.90;;;;;;5008297;28;20120;-77
2023/07/31 03:00:33;;;;;;;11.18;3.30;;;16.40;99.90;;;;;;4977050;28;20040;-78
2023/07/31 03:02:59;;;;;;;3.80;1.90;;;16.30;99.90;;;;;;4978521;28;20222;-78
2023/07/31 03:05:24;;;;;;;8.70;3.50;;;16.30;99.90;;;;;;4973900;28;20030;-79
2023/07/31 03:07:50;;;;;;;9.63;3.90;;;16.30;99.90;;;;;;4996535;28;20033;-78
2023/07/31 03:10:16;;;;;;;9.02;3.50;;;16.40;99.90;;;;;;4992345;28;20033;-77
2023/07/31 03:12:41;;;;;;;9.43;3.25;;;16.40;99.90;;;;;;5007209;28;20045;-78
2023/07/31 03:15:07;;;;;;;8.18;3.50;;;16.30;99.90;;;;;;4994035;28;20470;-78
2023/07/31 03:17:33;;;;;;;4.03;1.58;;;16.30;99.90;;;;;;5004131;28;20129;-77
2023/07/31 03:19:58;;;;;;;16.95;4.20;;;16.30;99.90;;;;;;4975804;28;20183;-78
2023/07/31 03:22:24;;;;;;;7.40;2.55;;;16.40;99.90;;;;;;5000484;28;20083;-78
2023/07/31 03:24:49;;;;;;;12.93;3.42;;;16.20;99.90;;;;;;4991707;28;20366;-78
2023/07/31 03:27:15;;;;;;;9.98;2.60;;;16.40;99.90;;;;;;4989848;28;20375;-78
2023/07/31 03:29:41;;;;;;;11.63;3.65;;;16.40;99.90;;;;;;5024671;28;20486;-78
2023/07/31 03:32:06;;;;;;;10.95;3.85;;;16.40;99.90;;;;;;4985555;28;20065;-77
2023/07/31 03:34:32;;;;;;;7.47;3.10;;;16.30;99.90;;;;;;4985073;28;20030;-77
2023/07/31 03:36:58;;;;;;;8.30;3.35;;;16.40;99.90;;;;;;5007638;28;20429;-77
2023/07/31 03:39:24;;;;;;;8.90;3.35;;;16.40;99.90;;;;;;5006246;28;20026;-77
2023/07/31 03:41:49;;;;;;;5.80;2.78;;;16.40;99.90;;;;;;4978910;28;20036;-77
2023/07/31 03:44:15;;;;;;;4.53;1.55;;;16.40;99.90;;;;;;4990779;28;20477;-77
2023/07/31 03:46:40;;;;;;;10.25;4.13;;;16.40;99.90;;;;;;5004171;28;20781;-77
2023/07/31 03:49:06;;;;;;;7.50;2.55;;;16.40;99.90;;;;;;4981758;28;20034;-77
2023/07/31 03:51:31;;;;;;;9.43;3.10;;;16.40;99.90;;;;;;5008072;28;20064;-77
2023/07/31 03:53:57;;;;;;;8.40;2.38;;;16.40;99.90;;;;;;4990931;28;20495;-77
2023/07/31 03:56:23;;;;;;;8.77;2.88;;;16.40;99.90;;;;;;4985823;28;20480;-78
2023/07/31 03:58:48;;;;;;;9.98;2.35;;;16.40;99.90;;;;;;5008073;28;20120;-78
2023/07/31 04:01:14;;;;;;;5.50;3.30;;;16.50;99.90;;;;;;4976523;28;20022;-77
2023/07/31 04:03:39;;;;;;;10.15;3.53;;;16.50;99.90;;;;;;5008600;28;20029;-78
2023/07/31 04:06:06;;;;;;;13.60;3.50;;;16.50;99.90;;;;;;4990307;28;20405;-77
2023/07/31 04:08:32;;;;;;;10.63;4.00;;;16.50;99.90;;;;;;4989727;28;20484;-77
2023/07/31 04:10:58;;;;;;;12.02;1.45;;;16.60;99.90;;;;;;4991496;28;20036;-78
2023/07/31 04:13:23;;;;;;;6.20;3.00;;;16.50;99.90;;;;;;4972248;28;20030;-77
2023/07/31 04:15:50;;;;;;;9.82;4.18;;;16.60;99.90;;;;;;5004735;28;20022;-77
2023/07/31 04:18:16;;;;;;;7.70;3.60;;;16.60;99.90;;;;;;5006327;28;20026;-77
2023/07/31 04:20:41;;;;;;;9.07;2.80;;;16.60;99.90;;;;;;4997191;28;20041;-78
2023/07/31 04:23:07;;;;;;;6.43;2.70;;;16.50;99.90;;;;;;5002669;28;20559;-77
2023/07/31 04:25:34;;;;;;;10.18;3.53;;;16.60;99.90;;;;;;4987397;28;20441;-77
2023/07/31 04:28:01;;;;;;;7.72;3.58;;;16.60;99.90;;;;;;4986717;28;20634;-77
2023/07/31 04:30:27;;;;;;;11.95;3.70;;;16.70;99.90;;;;;;4988813;28;20719;-78
2023/07/31 04:32:52;;;;;;;8.45;3.42;;;16.70;99.90;;;;;;5025105;28;20049;-78
2023/07/31 04:35:18;;;;;;;11.15;3.05;;;16.70;99.90;;;;;;4993594;28;20029;-78
2023/07/31 04:37:46;;;;;;;10.00;3.45;;;16.70;99.90;;;;;;5006570;28;20038;-78
2023/07/31 04:40:11;;;;;;;6.95;2.45;;;16.60;99.90;;;;;;4984033;28;20701;-77
2023/07/31 04:42:37;;;;;;;8.27;2.90;;;16.70;99.90;;;;;;4976981;28;20030;-78
2023/07/31 04:45:03;;;;;;;7.18;3.05;;;16.70;99.90;;;;;;4987847;28;20048;-78
2023/07/31 04:47:28;;;;;;;10.05;3.38;;;16.70;99.90;;;;;;4987055;28;20033;-78
2023/07/31 04:49:54;;;;;;;5.85;2.47;;;16.70;99.90;;;;;;4977280;28;20033;-78
2023/07/31 04:52:19;;;;;;;10.57;3.00;;;16.70;99.90;;;;;;4988329;28;20099;-77
2023/07/31 04:54:45;;;;;;;8.35;2.38;;;16.70;99.90;;;;;;5023196;28;20113;-78
2023/07/31 04:57:11;;;;;;;9.18;3.47;;;16.70;99.90;;;;;;4979408;28;20120;-77
2023/07/31 04:59:36;;;;;;;7.55;3.08;;;16.70;99.90;;;;;;4990211;28;20029;-78
2023/07/31 05:02:02;;;;;;;10.18;3.97;;;16.70;99.90;;;;;;4973678;28;20450;-77
2023/07/31 05:04:27;;;;;;;15.23;4.35;;;16.70;99.90;;;;;;5003417;28;20041;-78
2023/07/31 05:06:53;;;;;;;9.18;4.07;;;16.70;99.90;;;;;;5005921;28;20378;-77
2023/07/31 05:09:18;;;;;;;10.40;4.10;;;16.80;99.90;;;;;;4977625;28;20444;-77
2023/07/31 05:11:44;;;;;;;8.30;3.55;;;16.80;99.90;;;;;;4980634;28;20489;-78
2023/07/31 05:14:10;;;;;;;10.75;4.35;;;16.80;99.90;;;;;;4992949;28;20493;-77
2023/07/31 05:16:35;;;;;;;9.40;4.00;;;16.80;99.90;;;;;;4980421;28;20029;-77
2023/07/31 05:19:01;;;;;;;5.95;2.78;;;16.80;99.90;;;;;;4977405;28;20056;-77
2023/07/31 05:21:26;;;;;;;7.40;2.83;;;16.90;99.90;;;;;;4986661;28;20033;-77
2023/07/31 05:23:52;;;;;;;10.23;4.68;;;16.90;99.90;;;;;;4994385;28;20022;-77
2023/07/31 05:26:18;;;;;;;3.90;1.95;;;16.90;99.90;;;;;;5009507;28;20087;-77
2023/07/31 05:28:43;;;;;;;4.55;2.70;;;17.00;99.90;;;;;;4994110;28;20034;-77
2023/07/31 05:31:09;;;;;;;8.88;3.47;;;17.00;99.90;;;;;;4990615;28;20088;-78
2023/07/31 05:33:35;;;;;;;6.97;3.38;;;17.00;99.90;;;;;;4994321;28;20105;-77
2023/07/31 05:36:00;;;;;;;7.43;3.78;;;17.00;99.90;;;;;;4978125;28;20128;-78
2023/07/31 05:38:26;;;;;;;10.23;3.67;;;17.00;99.90;;;;;;4977812;28;20167;-78
2023/07/31 05:40:51;;;;;;;10.00;4.85;;;17.00;99.90;;;;;;5005380;28;20393;-78
2023/07/31 05:43:17;;;;;;;10.80;3.53;;;17.00;99.90;;;;;;4991289;28;20030;-77
2023/07/31 05:45:43;;;;;;;8.40;3.65;;;17.00;99.90;;;;;;4989902;28;20037;-77
2023/07/31 05:48:08;;;;;;;9.10;3.60;;;17.00;99.90;;;;;;4972509;28;20052;-77
2023/07/31 05:50:34;;;;;;;8.13;4.28;;;17.00;99.90;;;;;;4992343;28;20033;-78
2023/07/31 05:52:59;;;;;;;12.70;4.28;;;17.00;99.90;;;;;;4971027;28;20119;-78
2023/07/31 05:55:28;;;;;;;8.05;3.33;;;16.90;99.90;;;;;;4990267;28;20534;-78
2023/07/31 05:57:54;;;;;;;7.07;3.05;;;16.90;99.90;;;;;;4989143;28;20544;-78
2023/07/31 06:00:20;;;;;;;8.20;3.78;;;16.90;99.90;;;;;;5017070;28;20030;-77
2023/07/31 06:02:47;;;;;;;8.60;3.40;;;16.80;99.90;;;;;;4990150;28;20528;-77
2023/07/31 06:05:12;;;;;;;10.27;3.40;;;16.80;99.90;;;;;;5001837;28;20037;-77
2023/07/31 06:07:38;;;;;;;7.53;3.60;;;16.80;99.90;;;;;;5022266;28;20622;-77
2023/07/31 06:10:05;;;;;;;4.60;2.30;;;16.90;99.90;;;;;;4995421;28;20041;-77
2023/07/31 06:12:36;;;;;;;9.02;3.70;;;16.90;99.90;;;;;;4986838;28;20040;-76
2023/07/31 06:15:02;;;;;;;7.45;3.00;;;16.90;99.90;;;;;;5005444;28;20050;-77
2023/07/31 06:17:29;;;;;;;8.45;3.58;;;16.90;99.90;;;;;;4976474;28;20037;-76
2023/07/31 06:19:54;;;;;;;9.93;4.18;;;16.90;99.90;;;;;;4975352;28;20037;-78
2023/07/31 06:22:20;;;;;;;10.13;4.70;;;16.90;99.90;;;;;;5005161;28;20029;-77
2023/07/31 06:24:46;;;;;;;10.45;3.97;;;16.80;99.90;;;;;;4992217;28;20041;-77
2023/07/31 06:27:12;;;;;;;10.20;4.50;;;16.90;99.90;;;;;;4991104;28;20033;-77
2023/07/31 06:29:37;;;;;;;4.75;2.30;;;16.90;99.90;;;;;;4977098;28;20109;-77
2023/07/31 06:32:03;;;;;;;7.68;3.83;;;16.90;99.90;;;;;;5006351;28;20037;-77
2023/07/31 06:34:29;;;;;;;14.90;2.78;;;16.90;99.90;;;;;;4993841;28;20612;-77
2023/07/31 06:36:55;;;;;;;9.05;3.78;;;16.90;99.90;;;;;;4978669;28;20529;-77
2023/07/31 06:39:21;;;;;;;10.23;4.55;;;16.90;99.90;;;;;;5006338;28;20040;-77
2023/07/31 06:41:46;;;;;;;9.38;4.28;;;16.90;99.90;;;;;;4999583;28;20033;-77
2023/07/31 06:44:12;;;;;;;7.03;3.17;;;16.90;99.90;;;;;;4978721;28;20034;-77
2023/07/31 06:46:38;;;;;;;7.80;4.88;;;16.80;99.90;;;;;;5008854;28;20040;-77
2023/07/31 06:49:03;;;;;;;8.55;2.88;;;16.90;99.90;;;;;;5003625;28;20037;-78
2023/07/31 06:51:31;;;;;;;10.05;4.00;;;16.80;99.90;;;;;;5005680;28;20033;-77
2023/07/31 06:54:03;;;;;;;5.75;2.63;;;16.80;99.90;;;;;;4999474;28;20045;-77
2023/07/31 06:56:28;;;;;;;11.02;4.22;;;16.80;99.90;;;;;;4990242;28;20064;-77
2023/07/31 06:58:55;;;;;;;3.80;2.50;;;16.80;99.90;;;;;;4990927;28;20114;-77
2023/07/31 07:01:21;;;;;;;11.75;3.28;;;16.80;99.90;;;;;;4996842;28;20037;-77
2023/07/31 07:03:46;;;;;;;4.35;2.00;;;16.70;99.90;;;;;;4980528;28;20490;-77
2023/07/31 07:06:12;;;;;;;12.50;3.80;;;16.80;99.90;;;;;;4980363;28;20377;-77
2023/07/31 07:08:37;;;;;;;5.15;2.55;;;16.80;99.90;;;;;;4985765;28;20157;-78
2023/07/31 07:11:03;;;;;;;6.63;3.30;;;16.80;99.90;;;;;;5004543;28;20105;-77
2023/07/31 07:13:29;;;;;;;8.95;3.13;;;16.80;99.90;;;;;;4978955;28;20033;-77
2023/07/31 07:15:54;;;;;;;7.60;4.20;;;16.80;99.90;;;;;;4977549;28;20461;-77
2023/07/31 07:18:21;;;;;;;12.80;4.45;;;16.90;99.90;;;;;;5009350;28;20037;-77
2023/07/31 07:20:49;;;;;;;7.43;3.33;;;16.90;99.90;;;;;;5011486;28;20441;-78
2023/07/31 07:23:14;;;;;;;5.13;2.35;;;16.90;99.90;;;;;;4990502;28;20026;-77
2023/07/31 07:25:40;;;;;;;7.07;3.53;;;16.90;99.90;;;;;;4990491;28;20121;-77
2023/07/31 07:28:06;;;;;;;8.40;3.22;;;16.90;99.90;;;;;;4991878;28;20037;-78
2023/07/31 07:30:31;;;;;;;8.75;3.38;;;16.90;99.90;;;;;;4993712;28;20112;-78
2023/07/31 07:32:57;;;;;;;6.82;3.72;;;16.90;99.90;;;;;;4982676;28;20578;-78
2023/07/31 07:35:22;;;;;;;8.77;3.70;;;16.90;99.90;;;;;;4976819;28;20136;-77
2023/07/31 07:37:49;;;;;;;7.85;3.97;;;16.90;99.90;;;;;;4990653;28;20381;-77
2023/07/31 07:40:15;;;;;;;9.35;3.55;;;16.90;99.90;;;;;;4974778;28;20037;-77
2023/07/31 07:42:41;;;;;;;6.82;3.78;;;16.90;99.90;;;;;;5003528;28;20124;-77
2023/07/31 07:45:07;;;;;;;6.45;3.78;;;16.90;99.90;;;;;;4986976;28;20049;-77
2023/07/31 07:47:32;;;;;;;6.55;2.45;;;16.90;99.90;;;;;;4974881;28;20116;-76
2023/07/31 07:49:58;;;;;;;6.70;3.30;;;16.80;99.90;;;;;;4986747;28;20037;-77
2023/07/31 07:52:24;;;;;;;8.02;3.03;;;16.90;99.90;;;;;;4978039;28;20087;-77
2023/07/31 07:54:49;;;;;;;5.45;2.55;;;16.90;99.90;;;;;;4976759;28;20041;-77
2023/07/31 07:57:15;;;;;;;4.20;2.38;;;16.90;99.90;;;;;;5001587;28;20068;-77
2023/07/31 07:59:41;;;;;;;6.55;2.47;;;16.90;99.90;;;;;;4992644;28;20514;-77
2023/07/31 08:02:07;;;;;;;6.72;2.70;;;17.00;99.90;;;;;;4994941;28;20485;-77
2023/07/31 08:04:32;;;;;;;3.97;1.90;;;17.00;99.90;;;;;;4986354;28;20032;-77
2023/07/31 08:06:58;;;;;;;5.60;3.17;;;17.00;99.90;;;;;;4987836;28;20045;-77
2023/07/31 08:09:23;;;;;;;9.23;3.55;;;16.90;99.90;;;;;;4975611;28;20043;-78
2023/07/31 08:11:49;;;;;;;20.33;3.33;;;17.00;99.90;;;;;;5002594;28;20061;-77
2023/07/31 08:14:14;;;;;;;9.18;3.65;;;16.90;99.90;;;;;;4972500;28;20032;-77
2023/07/31 08:16:40;;;;;;;3.72;1.55;;;16.90;99.90;;;;;;5001450;28;20583;-77
2023/07/31 08:19:05;;;;;;;4.32;1.90;;;16.90;99.90;;;;;;4990488;28;20052;-77
2023/07/31 08:21:31;;;;;;;6.05;2.55;;;16.90;99.90;;;;;;5025696;28;20036;-77
2023/07/31 08:23:57;;;;;;;2.70;1.65;;;16.90;99.90;;;;;;4991658;28;20072;-77
2023/07/31 08:26:22;;;;;;;4.50;2.67;;;16.90;99.90;;;;;;4994976;28;20121;-77
2023/07/31 08:28:48;;;;;;;3.20;1.80;;;17.00;99.90;;;;;;4981714;28;20393;-78
2023/07/31 08:31:14;;;;;;;2.38;1.38;;;17.10;99.90;;;;;;4996446;28;20629;-77
2023/07/31 08:33:40;;;;;;;2.58;1.92;;;17.10;99.90;;;;;;4994612;28;20026;-77
2023/07/31 08:36:05;;;;;;;6.32;1.80;;;17.10;99.90;;;;;;4995465;28;20120;-79
2023/07/31 08:38:31;;;;;;;4.82;2.58;;;17.10;99.90;;;;;;4988582;28;20132;-77
2023/07/31 08:40:57;;;;;;;6.63;2.65;;;17.10;99.90;;;;;;4991066;28;20103;-78
2023/07/31 08:43:27;;;;;;;6.05;2.90;;;17.10;99.90;;;;;;4975947;28;20029;-79
2023/07/31 08:45:53;;;;;;;4.30;2.38;;;17.20;99.90;;;;;;4977208;28;20315;-78
2023/07/31 08:48:22;;;;;;;5.68;2.83;;;17.30;99.90;;;;;;4990968;28;20033;-78
2023/07/31 08:50:47;;;;;;;9.00;2.60;;;17.10;99.90;;;;;;4993917;28;20420;-78
2023/07/31 08:53:13;;;;;;;3.45;2.42;;;17.10;99.90;;;;;;5007413;28;20030;-78
2023/07/31 08:55:39;;;;;;;2.75;1.55;;;17.10;99.90;;;;;;4992368;28;20088;-78
2023/07/31 08:58:04;;;;;;;5.07;2.17;;;17.10;99.90;;;;;;5025402;28;20449;-78
2023/07/31 09:00:31;;;;;;;4.95;2.45;;;17.10;99.90;;;;;;4975351;28;20100;-78
2023/07/31 09:03:03;;;;;;;4.10;2.75;;;17.00;99.90;;;;;;4985855;28;20389;-78
2023/07/31 09:05:30;;;;;;;2.72;1.42;;;17.00;99.90;;;;;;4991775;28;20056;-77
2023/07/31 09:07:56;;;;;;;4.25;2.38;;;17.10;99.90;;;;;;5008964;28;20041;-78
2023/07/31 09:10:21;;;;;;;5.07;2.55;;;17.10;99.90;;;;;;4973527;28;20662;-77
2023/07/31 09:12:47;;;;;;;2.25;1.42;;;17.20;99.90;;;;;;5003601;28;20040;-78
2023/07/31 09:15:12;;;;;;;4.28;2.08;;;17.20;99.90;;;;;;4994244;28;20116;-78
2023/07/31 09:17:38;;;;;;;3.70;2.15;;;17.20;99.90;;;;;;4988320;28;20466;-78
2023/07/31 09:20:20;;;;;;;2.90;1.10;;;17.20;99.90;;;;;;4989681;28;20033;-78
2023/07/31 09:22:46;;;;;;;4.97;1.95;;;17.10;99.90;;;;;;5007063;28;20120;-78
2023/07/31 09:25:24;;;;;;;3.17;1.95;;;17.10;99.90;;;;;;5009328;28;20048;-78
2023/07/31 09:27:51;;;;;;;2.53;1.75;;;17.00;99.90;;;;;;5000600;28;20377;-78
2023/07/31 09:30:17;;;;;;;2.05;1.65;;;17.00;99.90;;;;;;4970852;28;20117;-77
2023/07/31 09:32:44;;;;;;;2.05;1.67;;;17.10;99.90;;;;;;4975081;28;20034;-79
2023/07/31 09:35:33;;;;;;;3.40;1.90;;;17.20;99.90;;;;;;4991512;28;20064;-77
2023/07/31 09:38:00;;;;;;;3.47;1.77;;;17.20;99.90;;;;;;4989266;28;20099;-78
2023/07/31 09:40:29;;;;;;;4.32;2.33;;;17.30;99.90;;;;;;4971881;28;20036;-78
2023/07/31 09:42:59;;;;;;;2.17;1.23;;;17.20;99.90;;;;;;4997258;28;20034;-78
2023/07/31 09:45:25;;;;;;;3.05;1.80;;;17.20;99.90;;;;;;4987761;28;20117;-78
2023/07/31 09:47:51;;;;;;;4.82;2.28;;;17.30;99.90;;;;;;4991945;28;20065;-78
2023/07/31 09:50:16;;;;;;;3.85;1.98;;;17.30;99.90;;;;;;5004422;28;20061;-78
2023/07/31 09:52:42;;;;;;;3.30;2.08;;;17.30;99.90;;;;;;4990928;28;20034;-78
2023/07/31 09:55:09;;;;;;;2.70;1.80;;;17.40;99.90;;;;;;4986905;28;20034;-79
2023/07/31 09:57:34;;;;;;;4.68;2.05;;;17.40;99.90;;;;;;4984030;28;20036;-78
2023/07/31 10:00:00;;;;;;;1.13;1.02;;;17.50;99.90;;;;;;4974037;28;20033;-79
2023/07/31 10:02:25;;;;;;;2.83;1.98;;;17.60;99.90;;;;;;4975223;28;20061;-78
2023/07/31 10:04:51;;;;;;;1.80;1.05;;;17.40;99.90;;;;;;4972010;28;20042;-79
2023/07/31 10:07:17;;;;;;;2.38;1.23;;;17.40;99.90;;;;;;4993542;28;20033;-78
2023/07/31 10:09:43;;;;;;;1.63;1.15;;;17.40;99.90;;;;;;4985144;28;20040;-77
2023/07/31 10:12:09;;;;;;;2.33;1.95;;;17.40;99.90;;;;;;4981351;28;20025;-78
2023/07/31 10:14:35;;;;;;;4.35;2.00;;;17.40;99.90;;;;;;4974892;28;20057;-78
2023/07/31 10:17:00;;;;;;;2.95;1.75;;;17.50;99.90;;;;;;4984092;28;20037;-79
2023/07/31 10:19:26;;;;;;;2.03;1.52;;;17.50;99.90;;;;;;4978237;28;20095;-78
2023/07/31 10:21:52;;;;;;;2.13;1.88;;;17.40;99.90;;;;;;4971586;28;20030;-78
2023/07/31 10:24:18;;;;;;;1.23;1.08;;;17.40;99.90;;;;;;4985018;28;20388;-77
2023/07/31 10:26:45;;;;;;;2.20;1.60;;;17.40;99.90;;;;;;4984942;28;20033;-78
2023/07/31 10:29:11;;;;;;;1.67;1.20;;;17.40;99.90;;;;;;4995596;28;20420;-78
2023/07/31 10:31:37;;;;;;;1.52;1.35;;;17.40;99.90;;;;;;4981256;28;20121;-79
2023/07/31 10:34:03;;;;;;;3.00;1.92;;;17.40;99.90;;;;;;5006196;28;20117;-78
2023/07/31 10:36:28;;;;;;;3.78;2.22;;;17.40;99.90;;;;;;4980765;28;20033;-77
2023/07/31 10:38:55;;;;;;;1.33;0.77;;;17.50;99.90;;;;;;5007500;28;20052;-79
2023/07/31 10:41:31;;;;;;;3.17;1.60;;;17.40;99.90;;;;;;4985425;28;20362;-77
2023/07/31 10:44:03;;;;;;;3.92;1.33;;;17.50;99.90;;;;;;4995311;28;20041;-79
2023/07/31 10:46:29;;;;;;;3.35;1.95;;;17.40;99.90;;;;;;4978293;28;20528;-78
2023/07/31 10:49:00;;;;;;;3.75;1.92;;;17.40;99.90;;;;;;5008021;28;20034;-79
2023/07/31 10:51:35;;;;;;;3.25;2.10;;;17.50;99.90;;;;;;5008854;28;20030;-77
2023/07/31 10:54:14;;;;;;;1.42;1.33;;;17.50;99.90;;;;;;4987091;28;20038;-78
2023/07/31 10:56:40;;;;;;;6.72;1.90;;;17.50;99.90;;;;;;4989084;28;20065;-78
2023/07/31 10:59:06;;;;;;;5.35;2.70;;;17.50;99.90;;;;;;4978832;28;20490;-78
2023/07/31 11:01:53;;;;;;;3.45;2.08;;;17.40;99.90;;;;;;4994257;28;20017;-78
2023/07/31 11:04:25;;;;;;;2.65;1.58;;;17.50;99.90;;;;;;4997522;28;21669;-77
2023/07/31 11:06:57;;;;;;;6.68;2.55;;;17.50;99.90;;;;;;4988888;28;20069;-78
2023/07/31 11:09:24;;;;;;;5.28;2.47;;;17.60;99.90;;;;;;5007949;28;20124;-78
2023/07/31 11:11:51;;;;;;;3.85;2.20;;;17.70;99.90;;;;;;4998064;28;20428;-78
2023/07/31 11:14:17;;;;;;;4.30;2.97;;;17.70;99.90;;;;;;4995869;28;20481;-78
2023/07/31 11:16:43;;;;;;;3.65;2.75;;;17.80;99.90;;;;;;4973884;28;20037;-77
2023/07/31 11:19:08;;;;;;;2.30;1.60;;;17.90;99.90;;;;;;4976787;28;20149;-77
2023/07/31 11:21:34;;;;;;;1.88;1.52;;;17.90;99.90;;;;;;4994133;28;20060;-77
2023/07/31 11:23:59;;;;;;;4.47;2.28;;;17.90;99.90;;;;;;5026593;28;20493;-77
2023/07/31 11:26:25;;;;;;;6.07;3.05;;;17.90;99.90;;;;;;4983095;28;20072;-77
2023/07/31 11:28:51;;;;;;;6.63;2.33;;;18.10;99.90;;;;;;4999008;28;20026;-77
2023/07/31 11:31:17;;;;;;;2.97;1.63;;;18.00;99.90;;;;;;5008170;28;20077;-77
2023/07/31 11:33:43;;;;;;;7.45;3.08;;;18.10;99.90;;;;;;5005605;28;20065;-77
2023/07/31 11:36:19;;;;;;;6.35;2.70;;;18.40;99.90;;;;;;4989329;28;20072;-77
2023/07/31 11:38:45;;;;;;;4.53;2.65;;;18.20;99.90;;;;;;4992573;28;20532;-77
2023/07/31 11:41:13;;;;;;;5.20;1.95;;;18.30;99.90;;;;;;4990597;28;20060;-77
2023/07/31 11:43:38;;;;;;;3.65;1.85;;;18.40;99.90;;;;;;4976951;28;20562;-77
2023/07/31 11:46:05;;;;;;;5.63;2.67;;;18.60;99.90;;;;;;4980717;28;20034;-77
2023/07/31 11:48:41;;;;;;;3.67;1.85;;;18.50;99.90;;;;;;4992625;28;20397;-78
2023/07/31 11:51:08;;;;;;;;;;;18.50;99.90;;;;;;4992932;28;20057;-77
2023/07/31 11:54:03;;;;;;;2.38;1.80;;;18.60;99.90;;;;;;5026628;28;19909;-77
2023/07/31 11:56:29;;;;;;;3.45;1.75;;;18.70;99.90;;;;;;5004960;28;20047;-78
2023/07/31 11:58:59;;;;;;;5.75;1.98;;;18.80;99.90;;;;;;4994918;28;20037;-77
2023/07/31 12:01:25;;;;;;;4.00;1.50;;;18.90;99.90;;;;;;4289019;28;9999930;-77
2023/07/31 12:03:50;;;;;;;3.08;2.17;;;18.90;99.90;;;;;;4984094;28;20021;-78
2023/07/31 12:06:20;;;;;;;4.43;2.35;;;18.80;99.90;;;;;;4993635;28;20389;-79
2023/07/31 12:08:46;;;;;;;4.20;1.88;;;19.00;99.90;;;;;;4990922;28;20116;-79
2023/07/31 12:11:15;;;;;;;2.38;2.05;;;19.00;99.90;;;;;;5002196;28;20132;-79
2023/07/31 12:13:40;;;;;;;3.67;2.08;;;19.20;99.90;;;;;;4989965;28;20744;-79
2023/07/31 12:16:06;;;;;;;9.77;1.88;;;19.00;99.90;;;;;;4999958;28;20040;-79
2023/07/31 12:18:35;;;;;;;3.95;2.20;;;19.30;99.90;;;;;;4990907;28;20483;-79
2023/07/31 12:21:04;;;;;;;6.22;2.08;;;19.30;99.90;;;;;;4972897;28;20022;-80
2023/07/31 12:23:33;;;;;;;3.53;2.25;;;19.20;99.90;;;;;;4990118;28;20548;-79
2023/07/31 12:26:06;;;;;;;3.10;2.00;;;19.40;99.90;;;;;;4985832;28;20121;-79
2023/07/31 12:28:40;;;;;;;2.35;1.70;;;19.10;99.90;;;;;;4988443;28;20532;-79
2023/07/31 12:31:07;;;;;;;2.85;1.73;;;19.30;99.90;;;;;;4974757;28;20496;-79
2023/07/31 12:33:33;;;;;;;2.67;2.10;;;19.20;99.90;;;;;;4986249;28;20520;-79
2023/07/31 12:36:01;;;;;;;4.03;1.95;;;19.20;99.90;;;;;;5006121;28;20198;-79
2023/07/31 12:38:26;;;;;;;2.72;1.65;;;19.30;99.90;;;;;;5007037;28;20049;-79
2023/07/31 12:40:52;;;;;;;3.25;1.88;;;19.20;99.90;;;;;;4988942;28;20500;-80
2023/07/31 12:43:17;;;;;;;3.05;1.45;;;19.30;99.90;;;;;;5005321;28;20084;-79